sensor_id;sensor_type;location;lat;lon;timestamp;P1;durP1;ratioP1;P2;durP2;ratioP2
56005;SDS011;41888;44.696;10.522;2022-08-19T00:00:35;16.58;;;12.32;;
56005;SDS011;41888;44.696;10.522;2022-08-19T00:03:02;15.25;;;12.40;;
56005;SDS011;41888;44.696;10.522;2022-08-19T00:05:29;17.50;;;13.00;;
56005;SDS011;41888;44.696;10.522;2022-08-19T00:07:56;14.75;;;11.48;;
56005;SDS011;41888;44.696;10.522;2022-08-19T00:10:23;13.73;;;10.25;;
56005;SDS011;41888;44.696;10.522;2022-08-19T00:12:49;13.48;;;9.80;;
56005;SDS011;41888;44.696;10.522;2022-08-19T00:15:17;12.55;;;10.05;;
56005;SDS011;41888;44.696;10.522;2022-08-19T00:17:44;10.93;;;9.05;;
56005;SDS011;41888;44.696;10.522;2022-08-19T00:20:12;10.32;;;8.30;;
56005;SDS011;41888;44.696;10.522;2022-08-19T00:22:43;10.65;;;9.27;;
56005;SDS011;41888;44.696;10.522;2022-08-19T00:25:10;11.85;;;8.88;;
56005;SDS011;41888;44.696;10.522;2022-08-19T00:27:37;12.68;;;9.15;;
56005;SDS011;41888;44.696;10.522;2022-08-19T00:30:05;10.20;;;8.57;;
56005;SDS011;41888;44.696;10.522;2022-08-19T00:32:32;10.02;;;7.93;;
56005;SDS011;41888;44.696;10.522;2022-08-19T00:34:59;10.82;;;8.57;;
56005;SDS011;41888;44.696;10.522;2022-08-19T00:37:26;12.02;;;8.82;;
56005;SDS011;41888;44.696;10.522;2022-08-19T00:39:53;8.80;;;7.90;;
56005;SDS011;41888;44.696;10.522;2022-08-19T00:42:20;10.40;;;8.70;;
56005;SDS011;41888;44.696;10.522;2022-08-19T00:44:47;12.63;;;9.40;;
56005;SDS011;41888;44.696;10.522;2022-08-19T00:47:15;10.48;;;8.57;;
56005;SDS011;41888;44.696;10.522;2022-08-19T00:49:43;13.88;;;9.10;;
56005;SDS011;41888;44.696;10.522;2022-08-19T00:52:18;11.80;;;9.27;;
56005;SDS011;41888;44.696;10.522;2022-08-19T00:54:47;12.48;;;9.75;;
56005;SDS011;41888;44.696;10.522;2022-08-19T00:57:17;12.98;;;10.57;;
56005;SDS011;41888;44.696;10.522;2022-08-19T00:59:47;11.90;;;9.43;;
56005;SDS011;41888;44.696;10.522;2022-08-19T01:02:17;14.57;;;11.27;;
56005;SDS011;41888;44.696;10.522;2022-08-19T01:04:44;16.60;;;11.75;;
56005;SDS011;41888;44.696;10.522;2022-08-19T01:07:10;14.93;;;10.85;;
56005;SDS011;41888;44.696;10.522;2022-08-19T01:09:36;16.50;;;12.52;;
56005;SDS011;41888;44.696;10.522;2022-08-19T01:12:03;17.67;;;13.52;;
56005;SDS011;41888;44.696;10.522;2022-08-19T01:14:29;19.40;;;15.43;;
56005;SDS011;41888;44.696;10.522;2022-08-19T01:16:56;19.05;;;15.18;;
56005;SDS011;41888;44.696;10.522;2022-08-19T01:19:29;21.00;;;15.77;;
56005;SDS011;41888;44.696;10.522;2022-08-19T01:22:03;24.10;;;15.02;;
56005;SDS011;41888;44.696;10.522;2022-08-19T01:24:31;20.23;;;15.75;;
56005;SDS011;41888;44.696;10.522;2022-08-19T01:26:58;21.67;;;15.65;;
56005;SDS011;41888;44.696;10.522;2022-08-19T01:29:24;20.85;;;15.70;;
56005;SDS011;41888;44.696;10.522;2022-08-19T01:31:50;18.67;;;15.02;;
56005;SDS011;41888;44.696;10.522;2022-08-19T01:34:18;19.55;;;15.70;;
56005;SDS011;41888;44.696;10.522;2022-08-19T01:36:46;18.77;;;13.93;;
56005;SDS011;41888;44.696;10.522;2022-08-19T01:39:15;21.52;;;15.82;;
56005;SDS011;41888;44.696;10.522;2022-08-19T01:41:47;22.98;;;15.82;;
56005;SDS011;41888;44.696;10.522;2022-08-19T01:44:14;21.05;;;15.68;;
56005;SDS011;41888;44.696;10.522;2022-08-19T01:46:42;19.55;;;16.02;;
56005;SDS011;41888;44.696;10.522;2022-08-19T01:49:09;23.10;;;16.85;;
56005;SDS011;41888;44.696;10.522;2022-08-19T01:51:36;22.58;;;16.85;;
56005;SDS011;41888;44.696;10.522;2022-08-19T01:54:02;23.45;;;16.70;;
56005;SDS011;41888;44.696;10.522;2022-08-19T01:56:29;25.40;;;17.63;;
56005;SDS011;41888;44.696;10.522;2022-08-19T01:58:56;23.73;;;17.98;;
56005;SDS011;41888;44.696;10.522;2022-08-19T02:01:27;21.27;;;16.42;;
56005;SDS011;41888;44.696;10.522;2022-08-19T02:03:57;25.40;;;18.00;;
56005;SDS011;41888;44.696;10.522;2022-08-19T02:06:25;25.70;;;18.48;;
56005;SDS011;41888;44.696;10.522;2022-08-19T02:08:52;26.70;;;20.15;;
56005;SDS011;41888;44.696;10.522;2022-08-19T02:11:23;33.83;;;21.77;;
56005;SDS011;41888;44.696;10.522;2022-08-19T02:13:53;27.75;;;20.75;;
56005;SDS011;41888;44.696;10.522;2022-08-19T02:16:19;28.52;;;20.52;;
56005;SDS011;41888;44.696;10.522;2022-08-19T02:18:46;34.45;;;22.35;;
56005;SDS011;41888;44.696;10.522;2022-08-19T02:21:14;32.60;;;22.77;;
56005;SDS011;41888;44.696;10.522;2022-08-19T02:23:42;28.52;;;19.80;;
56005;SDS011;41888;44.696;10.522;2022-08-19T02:26:09;24.83;;;17.67;;
56005;SDS011;41888;44.696;10.522;2022-08-19T02:28:35;22.80;;;15.57;;
56005;SDS011;41888;44.696;10.522;2022-08-19T02:31:02;24.25;;;18.38;;
56005;SDS011;41888;44.696;10.522;2022-08-19T02:33:29;16.08;;;11.60;;
56005;SDS011;41888;44.696;10.522;2022-08-19T02:35:55;15.40;;;10.55;;
56005;SDS011;41888;44.696;10.522;2022-08-19T02:38:21;12.13;;;8.90;;
56005;SDS011;41888;44.696;10.522;2022-08-19T02:40:55;8.98;;;5.90;;
56005;SDS011;41888;44.696;10.522;2022-08-19T02:43:23;2.80;;;1.60;;
56005;SDS011;41888;44.696;10.522;2022-08-19T02:45:50;3.38;;;1.42;;
56005;SDS011;41888;44.696;10.522;2022-08-19T02:48:21;3.00;;;1.65;;
56005;SDS011;41888;44.696;10.522;2022-08-19T02:50:50;5.88;;;2.70;;
56005;SDS011;41888;44.696;10.522;2022-08-19T02:53:24;8.85;;;2.95;;
56005;SDS011;41888;44.696;10.522;2022-08-19T02:55:53;4.50;;;1.90;;
56005;SDS011;41888;44.696;10.522;2022-08-19T02:58:20;8.52;;;2.63;;
56005;SDS011;41888;44.696;10.522;2022-08-19T03:00:50;4.70;;;1.40;;
56005;SDS011;41888;44.696;10.522;2022-08-19T03:03:17;4.75;;;1.70;;
56005;SDS011;41888;44.696;10.522;2022-08-19T03:05:44;5.15;;;2.38;;
56005;SDS011;41888;44.696;10.522;2022-08-19T03:08:11;4.65;;;2.30;;
56005;SDS011;41888;44.696;10.522;2022-08-19T03:10:45;5.95;;;3.03;;
56005;SDS011;41888;44.696;10.522;2022-08-19T03:13:14;10.18;;;2.97;;
56005;SDS011;41888;44.696;10.522;2022-08-19T03:15:43;5.60;;;2.30;;
56005;SDS011;41888;44.696;10.522;2022-08-19T03:18:11;6.22;;;3.28;;
56005;SDS011;41888;44.696;10.522;2022-08-19T03:20:42;9.43;;;3.47;;
56005;SDS011;41888;44.696;10.522;2022-08-19T03:23:13;9.48;;;3.40;;
56005;SDS011;41888;44.696;10.522;2022-08-19T03:25:41;4.80;;;3.55;;
56005;SDS011;41888;44.696;10.522;2022-08-19T03:28:10;5.65;;;3.45;;
56005;SDS011;41888;44.696;10.522;2022-08-19T03:30:38;5.22;;;3.03;;
56005;SDS011;41888;44.696;10.522;2022-08-19T03:33:09;9.23;;;3.08;;
56005;SDS011;41888;44.696;10.522;2022-08-19T03:35:38;5.88;;;3.70;;
56005;SDS011;41888;44.696;10.522;2022-08-19T03:38:05;6.80;;;2.47;;
56005;SDS011;41888;44.696;10.522;2022-08-19T03:40:32;5.18;;;2.67;;
56005;SDS011;41888;44.696;10.522;2022-08-19T03:43:01;5.53;;;2.35;;
56005;SDS011;41888;44.696;10.522;2022-08-19T03:45:28;4.50;;;2.38;;
56005;SDS011;41888;44.696;10.522;2022-08-19T03:47:54;6.10;;;2.42;;
56005;SDS011;41888;44.696;10.522;2022-08-19T03:50:21;5.07;;;2.80;;
56005;SDS011;41888;44.696;10.522;2022-08-19T03:52:50;4.10;;;2.40;;
56005;SDS011;41888;44.696;10.522;2022-08-19T03:55:17;5.05;;;2.88;;
56005;SDS011;41888;44.696;10.522;2022-08-19T03:57:43;6.15;;;2.97;;
56005;SDS011;41888;44.696;10.522;2022-08-19T04:00:11;8.15;;;2.50;;
56005;SDS011;41888;44.696;10.522;2022-08-19T04:02:37;7.53;;;3.55;;
56005;SDS011;41888;44.696;10.522;2022-08-19T04:05:04;9.18;;;3.25;;
56005;SDS011;41888;44.696;10.522;2022-08-19T04:07:32;3.78;;;2.95;;
56005;SDS011;41888;44.696;10.522;2022-08-19T04:09:59;7.80;;;2.80;;
56005;SDS011;41888;44.696;10.522;2022-08-19T04:12:25;5.53;;;2.67;;
56005;SDS011;41888;44.696;10.522;2022-08-19T04:14:52;6.25;;;2.67;;
56005;SDS011;41888;44.696;10.522;2022-08-19T04:17:18;5.65;;;2.65;;
56005;SDS011;41888;44.696;10.522;2022-08-19T04:19:44;6.43;;;2.70;;
56005;SDS011;41888;44.696;10.522;2022-08-19T04:22:10;7.38;;;2.50;;
56005;SDS011;41888;44.696;10.522;2022-08-19T04:24:36;5.20;;;2.20;;
56005;SDS011;41888;44.696;10.522;2022-08-19T04:27:03;14.23;;;3.42;;
56005;SDS011;41888;44.696;10.522;2022-08-19T04:29:31;4.75;;;2.35;;
56005;SDS011;41888;44.696;10.522;2022-08-19T04:31:58;7.38;;;2.28;;
56005;SDS011;41888;44.696;10.522;2022-08-19T04:34:26;4.85;;;1.83;;
56005;SDS011;41888;44.696;10.522;2022-08-19T04:36:55;4.63;;;1.70;;
56005;SDS011;41888;44.696;10.522;2022-08-19T04:39:24;7.03;;;1.77;;
56005;SDS011;41888;44.696;10.522;2022-08-19T04:42:13;6.50;;;1.60;;
56005;SDS011;41888;44.696;10.522;2022-08-19T04:45:00;8.68;;;2.22;;
56005;SDS011;41888;44.696;10.522;2022-08-19T04:47:28;8.43;;;2.50;;
56005;SDS011;41888;44.696;10.522;2022-08-19T04:49:54;5.78;;;1.83;;
56005;SDS011;41888;44.696;10.522;2022-08-19T04:52:21;7.10;;;1.70;;
56005;SDS011;41888;44.696;10.522;2022-08-19T04:54:47;8.07;;;1.73;;
56005;SDS011;41888;44.696;10.522;2022-08-19T04:57:13;6.55;;;1.58;;
56005;SDS011;41888;44.696;10.522;2022-08-19T04:59:40;5.90;;;1.63;;
56005;SDS011;41888;44.696;10.522;2022-08-19T05:02:06;3.65;;;1.83;;
56005;SDS011;41888;44.696;10.522;2022-08-19T05:04:33;2.15;;;0.90;;
56005;SDS011;41888;44.696;10.522;2022-08-19T05:07:03;5.45;;;1.50;;
56005;SDS011;41888;44.696;10.522;2022-08-19T05:09:29;5.15;;;1.13;;
56005;SDS011;41888;44.696;10.522;2022-08-19T05:11:56;4.05;;;1.55;;
56005;SDS011;41888;44.696;10.522;2022-08-19T05:14:22;5.80;;;1.40;;
56005;SDS011;41888;44.696;10.522;2022-08-19T05:16:48;3.20;;;1.38;;
56005;SDS011;41888;44.696;10.522;2022-08-19T05:19:14;5.32;;;2.28;;
56005;SDS011;41888;44.696;10.522;2022-08-19T05:24:44;3.15;;;1.05;;
56005;SDS011;41888;44.696;10.522;2022-08-19T05:27:10;3.45;;;1.23;;
56005;SDS011;41888;44.696;10.522;2022-08-19T05:29:36;3.15;;;1.35;;
56005;SDS011;41888;44.696;10.522;2022-08-19T05:32:03;4.22;;;1.30;;
56005;SDS011;41888;44.696;10.522;2022-08-19T05:34:33;3.08;;;1.10;;
56005;SDS011;41888;44.696;10.522;2022-08-19T05:37:01;3.33;;;1.15;;
56005;SDS011;41888;44.696;10.522;2022-08-19T05:39:28;5.22;;;1.55;;
56005;SDS011;41888;44.696;10.522;2022-08-19T05:41:58;4.38;;;1.00;;
56005;SDS011;41888;44.696;10.522;2022-08-19T05:44:35;2.55;;;1.10;;
56005;SDS011;41888;44.696;10.522;2022-08-19T05:47:05;3.95;;;1.20;;
56005;SDS011;41888;44.696;10.522;2022-08-19T05:49:33;3.42;;;1.20;;
56005;SDS011;41888;44.696;10.522;2022-08-19T05:52:02;3.47;;;0.95;;
56005;SDS011;41888;44.696;10.522;2022-08-19T05:54:30;4.90;;;0.90;;
56005;SDS011;41888;44.696;10.522;2022-08-19T05:56:57;3.10;;;1.30;;
56005;SDS011;41888;44.696;10.522;2022-08-19T05:59:25;3.65;;;1.00;;
56005;SDS011;41888;44.696;10.522;2022-08-19T06:01:52;5.72;;;2.70;;
56005;SDS011;41888;44.696;10.522;2022-08-19T06:04:22;3.00;;;0.77;;
56005;SDS011;41888;44.696;10.522;2022-08-19T06:06:51;4.13;;;1.13;;
56005;SDS011;41888;44.696;10.522;2022-08-19T06:09:18;1.42;;;0.50;;
56005;SDS011;41888;44.696;10.522;2022-08-19T06:14:19;2.08;;;0.70;;
56005;SDS011;41888;44.696;10.522;2022-08-19T06:16:47;2.53;;;0.90;;
56005;SDS011;41888;44.696;10.522;2022-08-19T06:19:16;5.93;;;1.08;;
56005;SDS011;41888;44.696;10.522;2022-08-19T06:21:45;2.90;;;0.80;;
56005;SDS011;41888;44.696;10.522;2022-08-19T06:24:14;2.17;;;1.10;;
56005;SDS011;41888;44.696;10.522;2022-08-19T06:26:43;2.88;;;0.90;;
56005;SDS011;41888;44.696;10.522;2022-08-19T06:29:11;1.73;;;0.77;;
56005;SDS011;41888;44.696;10.522;2022-08-19T06:31:40;1.67;;;0.63;;
56005;SDS011;41888;44.696;10.522;2022-08-19T06:34:09;2.10;;;0.73;;
56005;SDS011;41888;44.696;10.522;2022-08-19T06:36:38;2.20;;;1.00;;
56005;SDS011;41888;44.696;10.522;2022-08-19T06:39:11;4.20;;;1.10;;
56005;SDS011;41888;44.696;10.522;2022-08-19T06:41:42;2.80;;;1.02;;
56005;SDS011;41888;44.696;10.522;2022-08-19T06:44:10;2.05;;;1.00;;
56005;SDS011;41888;44.696;10.522;2022-08-19T06:46:37;2.33;;;0.40;;
56005;SDS011;41888;44.696;10.522;2022-08-19T06:49:04;3.30;;;0.70;;
56005;SDS011;41888;44.696;10.522;2022-08-19T06:51:33;2.40;;;0.77;;
56005;SDS011;41888;44.696;10.522;2022-08-19T06:53:59;1.75;;;0.82;;
56005;SDS011;41888;44.696;10.522;2022-08-19T06:56:28;2.97;;;0.65;;
56005;SDS011;41888;44.696;10.522;2022-08-19T06:59:03;2.22;;;0.50;;
56005;SDS011;41888;44.696;10.522;2022-08-19T07:01:38;2.92;;;0.50;;
56005;SDS011;41888;44.696;10.522;2022-08-19T07:04:07;1.00;;;0.60;;
56005;SDS011;41888;44.696;10.522;2022-08-19T07:06:34;2.17;;;0.77;;
56005;SDS011;41888;44.696;10.522;2022-08-19T07:09:02;1.75;;;0.63;;
56005;SDS011;41888;44.696;10.522;2022-08-19T07:11:30;1.30;;;0.60;;
56005;SDS011;41888;44.696;10.522;2022-08-19T07:13:57;1.63;;;0.70;;
56005;SDS011;41888;44.696;10.522;2022-08-19T07:16:24;2.53;;;0.80;;
56005;SDS011;41888;44.696;10.522;2022-08-19T07:18:51;1.95;;;0.60;;
56005;SDS011;41888;44.696;10.522;2022-08-19T07:21:18;1.30;;;0.50;;
56005;SDS011;41888;44.696;10.522;2022-08-19T07:23:47;1.52;;;0.70;;
56005;SDS011;41888;44.696;10.522;2022-08-19T07:28:48;3.35;;;0.50;;
56005;SDS011;41888;44.696;10.522;2022-08-19T07:31:17;1.75;;;0.68;;
56005;SDS011;41888;44.696;10.522;2022-08-19T07:33:46;1.85;;;0.50;;
56005;SDS011;41888;44.696;10.522;2022-08-19T07:36:15;1.80;;;0.40;;
56005;SDS011;41888;44.696;10.522;2022-08-19T07:38:44;0.95;;;0.40;;
56005;SDS011;41888;44.696;10.522;2022-08-19T07:41:14;2.92;;;1.23;;
56005;SDS011;41888;44.696;10.522;2022-08-19T07:43:43;0.95;;;0.20;;
56005;SDS011;41888;44.696;10.522;2022-08-19T07:46:10;0.98;;;0.40;;
56005;SDS011;41888;44.696;10.522;2022-08-19T07:48:38;1.13;;;0.32;;
56005;SDS011;41888;44.696;10.522;2022-08-19T07:51:12;0.67;;;0.40;;
56005;SDS011;41888;44.696;10.522;2022-08-19T07:53:40;2.42;;;0.40;;
56005;SDS011;41888;44.696;10.522;2022-08-19T07:56:06;0.88;;;0.32;;
56005;SDS011;41888;44.696;10.522;2022-08-19T07:58:34;1.23;;;0.50;;
56005;SDS011;41888;44.696;10.522;2022-08-19T08:01:04;0.80;;;0.22;;
56005;SDS011;41888;44.696;10.522;2022-08-19T08:03:31;0.28;;;0.28;;
56005;SDS011;41888;44.696;10.522;2022-08-19T08:06:16;1.67;;;0.25;;
56005;SDS011;41888;44.696;10.522;2022-08-19T08:09:02;1.42;;;0.40;;
56005;SDS011;41888;44.696;10.522;2022-08-19T08:14:35;1.80;;;0.38;;
56005;SDS011;41888;44.696;10.522;2022-08-19T08:17:09;0.93;;;0.20;;
56005;SDS011;41888;44.696;10.522;2022-08-19T08:19:36;0.70;;;0.38;;
56005;SDS011;41888;44.696;10.522;2022-08-19T08:22:03;1.33;;;0.20;;
56005;SDS011;41888;44.696;10.522;2022-08-19T08:24:31;1.65;;;0.40;;
56005;SDS011;41888;44.696;10.522;2022-08-19T08:26:58;1.33;;;0.40;;
56005;SDS011;41888;44.696;10.522;2022-08-19T08:29:28;2.03;;;0.43;;
56005;SDS011;41888;44.696;10.522;2022-08-19T08:31:56;0.50;;;0.22;;
56005;SDS011;41888;44.696;10.522;2022-08-19T08:34:22;0.98;;;0.45;;
56005;SDS011;41888;44.696;10.522;2022-08-19T08:36:49;0.30;;;0.20;;
56005;SDS011;41888;44.696;10.522;2022-08-19T08:39:18;1.10;;;0.22;;
56005;SDS011;41888;44.696;10.522;2022-08-19T08:41:53;2.63;;;0.32;;
56005;SDS011;41888;44.696;10.522;2022-08-19T08:44:52;1.13;;;0.30;;
56005;SDS011;41888;44.696;10.522;2022-08-19T08:47:47;0.45;;;0.40;;
56005;SDS011;41888;44.696;10.522;2022-08-19T08:52:48;1.80;;;0.35;;
56005;SDS011;41888;44.696;10.522;2022-08-19T08:55:20;0.73;;;0.40;;
56005;SDS011;41888;44.696;10.522;2022-08-19T09:00:25;1.23;;;0.45;;
56005;SDS011;41888;44.696;10.522;2022-08-19T09:02:59;0.82;;;0.30;;
56005;SDS011;41888;44.696;10.522;2022-08-19T09:05:48;1.27;;;0.38;;
56005;SDS011;41888;44.696;10.522;2022-08-19T09:10:51;2.42;;;0.40;;
56005;SDS011;41888;44.696;10.522;2022-08-19T09:18:47;1.98;;;0.40;;
56005;SDS011;41888;44.696;10.522;2022-08-19T09:21:17;1.48;;;0.30;;
56005;SDS011;41888;44.696;10.522;2022-08-19T09:23:43;0.68;;;0.30;;
56005;SDS011;41888;44.696;10.522;2022-08-19T09:26:11;1.30;;;0.55;;
56005;SDS011;41888;44.696;10.522;2022-08-19T09:28:40;1.65;;;0.40;;
56005;SDS011;41888;44.696;10.522;2022-08-19T09:31:09;1.13;;;0.38;;
56005;SDS011;41888;44.696;10.522;2022-08-19T09:33:36;1.17;;;0.40;;
56005;SDS011;41888;44.696;10.522;2022-08-19T09:36:07;3.05;;;0.28;;
56005;SDS011;41888;44.696;10.522;2022-08-19T09:38:35;2.55;;;1.30;;
56005;SDS011;41888;44.696;10.522;2022-08-19T09:41:05;3.58;;;0.75;;
56005;SDS011;41888;44.696;10.522;2022-08-19T09:43:33;2.92;;;0.70;;
56005;SDS011;41888;44.696;10.522;2022-08-19T09:46:01;6.05;;;1.38;;
56005;SDS011;41888;44.696;10.522;2022-08-19T09:48:31;1.70;;;0.40;;
56005;SDS011;41888;44.696;10.522;2022-08-19T09:53:33;2.67;;;0.40;;
56005;SDS011;41888;44.696;10.522;2022-08-19T09:56:00;3.67;;;0.75;;
56005;SDS011;41888;44.696;10.522;2022-08-19T09:58:27;1.27;;;0.32;;
56005;SDS011;41888;44.696;10.522;2022-08-19T10:00:55;2.08;;;0.47;;
56005;SDS011;41888;44.696;10.522;2022-08-19T10:03:23;0.98;;;0.40;;
56005;SDS011;41888;44.696;10.522;2022-08-19T10:05:50;2.55;;;0.70;;
56005;SDS011;41888;44.696;10.522;2022-08-19T10:08:21;2.17;;;0.50;;
56005;SDS011;41888;44.696;10.522;2022-08-19T10:10:51;2.03;;;0.60;;
56005;SDS011;41888;44.696;10.522;2022-08-19T10:13:19;0.98;;;0.30;;
56005;SDS011;41888;44.696;10.522;2022-08-19T10:15:48;2.13;;;0.57;;
56005;SDS011;41888;44.696;10.522;2022-08-19T10:18:18;1.73;;;0.40;;
56005;SDS011;41888;44.696;10.522;2022-08-19T10:20:46;2.58;;;0.50;;
56005;SDS011;41888;44.696;10.522;2022-08-19T10:23:13;1.23;;;0.40;;
56005;SDS011;41888;44.696;10.522;2022-08-19T10:25:40;1.98;;;0.50;;
56005;SDS011;41888;44.696;10.522;2022-08-19T10:28:07;2.05;;;0.50;;
56005;SDS011;41888;44.696;10.522;2022-08-19T10:30:37;1.08;;;0.68;;
56005;SDS011;41888;44.696;10.522;2022-08-19T10:33:04;2.13;;;0.50;;
56005;SDS011;41888;44.696;10.522;2022-08-19T10:35:31;1.25;;;0.38;;
56005;SDS011;41888;44.696;10.522;2022-08-19T10:37:57;0.77;;;0.40;;
56005;SDS011;41888;44.696;10.522;2022-08-19T10:40:26;1.67;;;0.40;;
56005;SDS011;41888;44.696;10.522;2022-08-19T10:42:53;1.63;;;0.40;;
56005;SDS011;41888;44.696;10.522;2022-08-19T10:45:23;1.65;;;0.22;;
56005;SDS011;41888;44.696;10.522;2022-08-19T10:47:51;1.38;;;0.40;;
56005;SDS011;41888;44.696;10.522;2022-08-19T10:50:18;1.10;;;0.43;;
56005;SDS011;41888;44.696;10.522;2022-08-19T10:53:04;1.40;;;0.50;;
56005;SDS011;41888;44.696;10.522;2022-08-19T10:55:33;2.53;;;0.50;;
56005;SDS011;41888;44.696;10.522;2022-08-19T10:58:19;0.98;;;0.40;;
56005;SDS011;41888;44.696;10.522;2022-08-19T11:00:59;1.95;;;0.75;;
56005;SDS011;41888;44.696;10.522;2022-08-19T11:03:25;1.67;;;0.45;;
56005;SDS011;41888;44.696;10.522;2022-08-19T11:05:59;1.30;;;0.32;;
56005;SDS011;41888;44.696;10.522;2022-08-19T11:08:27;2.97;;;0.60;;
56005;SDS011;41888;44.696;10.522;2022-08-19T11:10:54;1.73;;;0.60;;
56005;SDS011;41888;44.696;10.522;2022-08-19T11:13:22;2.33;;;0.47;;
56005;SDS011;41888;44.696;10.522;2022-08-19T11:15:59;0.90;;;0.35;;
56005;SDS011;41888;44.696;10.522;2022-08-19T11:18:27;1.80;;;0.50;;
56005;SDS011;41888;44.696;10.522;2022-08-19T11:20:53;1.83;;;0.47;;
56005;SDS011;41888;44.696;10.522;2022-08-19T11:23:19;1.98;;;0.63;;
56005;SDS011;41888;44.696;10.522;2022-08-19T11:25:46;1.48;;;0.22;;
56005;SDS011;41888;44.696;10.522;2022-08-19T11:28:12;2.08;;;0.60;;
56005;SDS011;41888;44.696;10.522;2022-08-19T11:30:38;2.10;;;0.45;;
56005;SDS011;41888;44.696;10.522;2022-08-19T11:33:05;1.80;;;0.60;;
56005;SDS011;41888;44.696;10.522;2022-08-19T11:35:31;0.60;;;0.30;;
56005;SDS011;41888;44.696;10.522;2022-08-19T11:37:58;1.77;;;0.30;;
56005;SDS011;41888;44.696;10.522;2022-08-19T11:40:26;1.98;;;0.45;;
56005;SDS011;41888;44.696;10.522;2022-08-19T11:42:52;2.03;;;0.40;;
56005;SDS011;41888;44.696;10.522;2022-08-19T11:45:26;0.90;;;0.35;;
56005;SDS011;41888;44.696;10.522;2022-08-19T11:47:53;1.20;;;0.40;;
56005;SDS011;41888;44.696;10.522;2022-08-19T11:50:19;2.28;;;0.93;;
56005;SDS011;41888;44.696;10.522;2022-08-19T11:52:46;1.45;;;0.40;;
56005;SDS011;41888;44.696;10.522;2022-08-19T11:55:14;1.05;;;0.40;;
56005;SDS011;41888;44.696;10.522;2022-08-19T11:57:41;1.17;;;0.50;;
56005;SDS011;41888;44.696;10.522;2022-08-19T12:00:09;2.25;;;0.40;;
56005;SDS011;41888;44.696;10.522;2022-08-19T12:02:37;2.05;;;0.20;;
56005;SDS011;41888;44.696;10.522;2022-08-19T12:05:04;1.15;;;0.30;;
56005;SDS011;41888;44.696;10.522;2022-08-19T12:07:31;2.10;;;0.50;;
56005;SDS011;41888;44.696;10.522;2022-08-19T12:09:58;1.40;;;0.30;;
56005;SDS011;41888;44.696;10.522;2022-08-19T12:12:25;0.55;;;0.30;;
56005;SDS011;41888;44.696;10.522;2022-08-19T12:14:52;1.40;;;0.40;;
56005;SDS011;41888;44.696;10.522;2022-08-19T12:17:27;2.97;;;0.40;;
56005;SDS011;41888;44.696;10.522;2022-08-19T12:19:55;0.68;;;0.30;;
56005;SDS011;41888;44.696;10.522;2022-08-19T12:22:22;0.50;;;0.20;;
56005;SDS011;41888;44.696;10.522;2022-08-19T12:24:48;1.80;;;0.57;;
56005;SDS011;41888;44.696;10.522;2022-08-19T12:27:15;2.20;;;0.80;;
56005;SDS011;41888;44.696;10.522;2022-08-19T12:29:42;0.60;;;0.40;;
56005;SDS011;41888;44.696;10.522;2022-08-19T12:32:08;1.50;;;0.35;;
56005;SDS011;41888;44.696;10.522;2022-08-19T12:34:35;2.35;;;0.40;;
56005;SDS011;41888;44.696;10.522;2022-08-19T12:37:02;2.47;;;0.45;;
56005;SDS011;41888;44.696;10.522;2022-08-19T12:39:29;2.97;;;0.47;;
56005;SDS011;41888;44.696;10.522;2022-08-19T12:41:59;3.50;;;0.45;;
56005;SDS011;41888;44.696;10.522;2022-08-19T12:44:25;0.82;;;0.20;;
56005;SDS011;41888;44.696;10.522;2022-08-19T12:46:51;1.08;;;0.32;;
56005;SDS011;41888;44.696;10.522;2022-08-19T12:49:18;2.35;;;0.43;;
56005;SDS011;41888;44.696;10.522;2022-08-19T12:51:44;0.50;;;0.20;;
56005;SDS011;41888;44.696;10.522;2022-08-19T12:54:11;0.60;;;0.30;;
56005;SDS011;41888;44.696;10.522;2022-08-19T12:56:37;2.75;;;0.50;;
56005;SDS011;41888;44.696;10.522;2022-08-19T12:59:03;1.17;;;0.30;;
56005;SDS011;41888;44.696;10.522;2022-08-19T13:01:33;1.15;;;0.32;;
56005;SDS011;41888;44.696;10.522;2022-08-19T13:03:59;1.60;;;0.40;;
56005;SDS011;41888;44.696;10.522;2022-08-19T13:06:26;1.15;;;0.47;;
56005;SDS011;41888;44.696;10.522;2022-08-19T13:08:53;1.65;;;0.88;;
56005;SDS011;41888;44.696;10.522;2022-08-19T13:11:20;0.55;;;0.20;;
56005;SDS011;41888;44.696;10.522;2022-08-19T13:13:49;0.80;;;0.30;;
56005;SDS011;41888;44.696;10.522;2022-08-19T13:16:17;0.77;;;0.30;;
56005;SDS011;41888;44.696;10.522;2022-08-19T13:18:45;1.30;;;0.20;;
56005;SDS011;41888;44.696;10.522;2022-08-19T13:21:13;0.98;;;0.50;;
56005;SDS011;41888;44.696;10.522;2022-08-19T13:23:40;2.00;;;0.40;;
56005;SDS011;41888;44.696;10.522;2022-08-19T13:26:07;2.72;;;0.63;;
56005;SDS011;41888;44.696;10.522;2022-08-19T13:28:35;2.10;;;0.40;;
56005;SDS011;41888;44.696;10.522;2022-08-19T13:31:21;1.42;;;0.28;;
56005;SDS011;41888;44.696;10.522;2022-08-19T13:34:07;2.00;;;0.40;;
56005;SDS011;41888;44.696;10.522;2022-08-19T13:36:33;2.40;;;0.32;;
56005;SDS011;41888;44.696;10.522;2022-08-19T13:39:00;0.98;;;0.30;;
56005;SDS011;41888;44.696;10.522;2022-08-19T13:41:27;0.90;;;0.40;;
56005;SDS011;41888;44.696;10.522;2022-08-19T13:43:54;0.77;;;0.47;;
56005;SDS011;41888;44.696;10.522;2022-08-19T13:46:20;0.93;;;0.30;;
56005;SDS011;41888;44.696;10.522;2022-08-19T13:48:47;0.35;;;0.20;;
56005;SDS011;41888;44.696;10.522;2022-08-19T13:51:14;1.00;;;0.40;;
56005;SDS011;41888;44.696;10.522;2022-08-19T13:53:41;1.25;;;0.40;;
56005;SDS011;41888;44.696;10.522;2022-08-19T13:56:09;2.22;;;0.45;;
56005;SDS011;41888;44.696;10.522;2022-08-19T13:58:38;0.88;;;0.30;;
56005;SDS011;41888;44.696;10.522;2022-08-19T14:01:05;0.85;;;0.30;;
56005;SDS011;41888;44.696;10.522;2022-08-19T14:03:32;0.85;;;0.30;;
56005;SDS011;41888;44.696;10.522;2022-08-19T14:05:59;0.95;;;0.40;;
56005;SDS011;41888;44.696;10.522;2022-08-19T14:08:25;1.48;;;0.30;;
56005;SDS011;41888;44.696;10.522;2022-08-19T14:10:53;0.60;;;0.20;;
56005;SDS011;41888;44.696;10.522;2022-08-19T14:13:22;1.25;;;0.32;;
56005;SDS011;41888;44.696;10.522;2022-08-19T14:15:49;0.82;;;0.38;;
56005;SDS011;41888;44.696;10.522;2022-08-19T14:18:16;1.58;;;0.40;;
56005;SDS011;41888;44.696;10.522;2022-08-19T14:20:44;2.67;;;0.30;;
56005;SDS011;41888;44.696;10.522;2022-08-19T14:23:10;0.65;;;0.25;;
56005;SDS011;41888;44.696;10.522;2022-08-19T14:25:38;0.98;;;0.45;;
56005;SDS011;41888;44.696;10.522;2022-08-19T14:28:04;0.80;;;0.30;;
56005;SDS011;41888;44.696;10.522;2022-08-19T14:30:33;1.73;;;0.50;;
56005;SDS011;41888;44.696;10.522;2022-08-19T14:33:02;1.75;;;0.40;;
56005;SDS011;41888;44.696;10.522;2022-08-19T14:35:30;1.88;;;0.70;;
56005;SDS011;41888;44.696;10.522;2022-08-19T14:38:02;1.15;;;0.50;;
56005;SDS011;41888;44.696;10.522;2022-08-19T14:40:30;1.02;;;0.32;;
56005;SDS011;41888;44.696;10.522;2022-08-19T14:42:58;1.10;;;0.40;;
56005;SDS011;41888;44.696;10.522;2022-08-19T14:45:29;0.77;;;0.20;;
56005;SDS011;41888;44.696;10.522;2022-08-19T14:47:57;0.93;;;0.30;;
56005;SDS011;41888;44.696;10.522;2022-08-19T14:50:25;0.50;;;0.32;;
56005;SDS011;41888;44.696;10.522;2022-08-19T14:52:57;1.60;;;0.30;;
56005;SDS011;41888;44.696;10.522;2022-08-19T14:55:29;1.40;;;0.40;;
56005;SDS011;41888;44.696;10.522;2022-08-19T14:57:56;2.70;;;0.40;;
56005;SDS011;41888;44.696;10.522;2022-08-19T15:00:22;1.42;;;0.38;;
56005;SDS011;41888;44.696;10.522;2022-08-19T15:02:49;0.30;;;0.17;;
56005;SDS011;41888;44.696;10.522;2022-08-19T15:05:16;2.22;;;0.57;;